sensor_id;sensor_type;location;lat;lon;timestamp;temperature;humidity
22098;DHT22;11215;51.938;8.464;2022-12-10T00:01:16;2.70;72.60
22098;DHT22;11215;51.938;8.464;2022-12-10T00:03:42;2.70;72.60
22098;DHT22;11215;51.938;8.464;2022-12-10T00:06:11;2.70;72.70
22098;DHT22;11215;51.938;8.464;2022-12-10T00:08:37;2.70;72.70
22098;DHT22;11215;51.938;8.464;2022-12-10T00:11:04;2.70;72.80
22098;DHT22;11215;51.938;8.464;2022-12-10T00:13:30;2.70;72.80
22098;DHT22;11215;51.938;8.464;2022-12-10T00:15:55;2.70;72.80
22098;DHT22;11215;51.938;8.464;2022-12-10T00:18:24;2.70;72.80
22098;DHT22;11215;51.938;8.464;2022-12-10T00:20:49;2.70;72.80
22098;DHT22;11215;51.938;8.464;2022-12-10T00:23:15;2.70;72.90
22098;DHT22;11215;51.938;8.464;2022-12-10T00:25:40;2.70;72.90
22098;DHT22;11215;51.938;8.464;2022-12-10T00:28:06;2.70;72.90
22098;DHT22;11215;51.938;8.464;2022-12-10T00:30:32;2.70;73.00
22098;DHT22;11215;51.938;8.464;2022-12-10T00:32:58;2.70;73.00
22098;DHT22;11215;51.938;8.464;2022-12-10T00:35:24;2.70;73.00
22098;DHT22;11215;51.938;8.464;2022-12-10T00:37:49;2.80;73.10
22098;DHT22;11215;51.938;8.464;2022-12-10T00:40:15;2.80;73.10
22098;DHT22;11215;51.938;8.464;2022-12-10T00:42:40;2.80;73.10
22098;DHT22;11215;51.938;8.464;2022-12-10T00:45:06;2.80;73.10
22098;DHT22;11215;51.938;8.464;2022-12-10T00:47:32;2.80;73.10
22098;DHT22;11215;51.938;8.464;2022-12-10T00:49:58;2.80;73.10
22098;DHT22;11215;51.938;8.464;2022-12-10T00:52:24;2.80;73.10
22098;DHT22;11215;51.938;8.464;2022-12-10T00:54:49;2.80;73.10
22098;DHT22;11215;51.938;8.464;2022-12-10T00:57:15;2.80;73.10
22098;DHT22;11215;51.938;8.464;2022-12-10T00:59:41;2.80;73.20
22098;DHT22;11215;51.938;8.464;2022-12-10T01:02:06;2.80;73.20
22098;DHT22;11215;51.938;8.464;2022-12-10T01:04:32;2.80;73.20
22098;DHT22;11215;51.938;8.464;2022-12-10T01:06:58;2.80;73.20
22098;DHT22;11215;51.938;8.464;2022-12-10T01:09:28;2.80;73.10
22098;DHT22;11215;51.938;8.464;2022-12-10T01:11:56;2.80;73.20
22098;DHT22;11215;51.938;8.464;2022-12-10T01:14:26;2.80;73.30
22098;DHT22;11215;51.938;8.464;2022-12-10T01:16:58;2.80;73.40
22098;DHT22;11215;51.938;8.464;2022-12-10T01:19:25;2.80;73.50
22098;DHT22;11215;51.938;8.464;2022-12-10T01:21:52;2.80;73.60
22098;DHT22;11215;51.938;8.464;2022-12-10T01:24:19;2.80;73.70
22098;DHT22;11215;51.938;8.464;2022-12-10T01:26:45;2.90;73.80
22098;DHT22;11215;51.938;8.464;2022-12-10T01:29:14;2.80;73.70
22098;DHT22;11215;51.938;8.464;2022-12-10T01:31:40;2.90;73.80
22098;DHT22;11215;51.938;8.464;2022-12-10T01:34:07;2.90;73.80
22098;DHT22;11215;51.938;8.464;2022-12-10T01:36:37;2.90;73.80
22098;DHT22;11215;51.938;8.464;2022-12-10T01:39:05;2.90;73.80
22098;DHT22;11215;51.938;8.464;2022-12-10T01:41:38;2.90;73.80
22098;DHT22;11215;51.938;8.464;2022-12-10T01:46:44;2.90;73.80
22098;DHT22;11215;51.938;8.464;2022-12-10T01:49:16;3.00;74.00
22098;DHT22;11215;51.938;8.464;2022-12-10T01:51:44;3.00;74.00
22098;DHT22;11215;51.938;8.464;2022-12-10T01:54:16;3.00;74.10
22098;DHT22;11215;51.938;8.464;2022-12-10T01:56:45;3.00;74.00
22098;DHT22;11215;51.938;8.464;2022-12-10T01:59:12;3.00;74.00
22098;DHT22;11215;51.938;8.464;2022-12-10T02:15:34;3.00;74.10
22098;DHT22;11215;51.938;8.464;2022-12-10T02:18:06;3.00;74.20
22098;DHT22;11215;51.938;8.464;2022-12-10T02:20:49;3.10;74.20
22098;DHT22;11215;51.938;8.464;2022-12-10T02:23:28;3.00;74.10
22098;DHT22;11215;51.938;8.464;2022-12-10T02:31:17;3.10;74.10
22098;DHT22;11215;51.938;8.464;2022-12-10T02:33:48;3.10;74.20
22098;DHT22;11215;51.938;8.464;2022-12-10T02:36:15;3.00;74.20
22098;DHT22;11215;51.938;8.464;2022-12-10T02:38:43;3.10;74.40
22098;DHT22;11215;51.938;8.464;2022-12-10T02:41:15;3.00;74.40
22098;DHT22;11215;51.938;8.464;2022-12-10T02:43:43;3.10;74.50
22098;DHT22;11215;51.938;8.464;2022-12-10T02:46:11;3.10;74.50
22098;DHT22;11215;51.938;8.464;2022-12-10T02:48:37;3.10;74.50
22098;DHT22;11215;51.938;8.464;2022-12-10T02:51:04;3.10;74.50
22098;DHT22;11215;51.938;8.464;2022-12-10T02:53:29;3.10;74.50
22098;DHT22;11215;51.938;8.464;2022-12-10T02:58:42;3.10;74.60
22098;DHT22;11215;51.938;8.464;2022-12-10T03:01:31;3.10;74.60
22098;DHT22;11215;51.938;8.464;2022-12-10T03:04:16;3.20;74.70
22098;DHT22;11215;51.938;8.464;2022-12-10T03:07:00;3.20;74.80
22098;DHT22;11215;51.938;8.464;2022-12-10T03:09:51;3.20;74.90
22098;DHT22;11215;51.938;8.464;2022-12-10T03:12:25;3.20;74.90
22098;DHT22;11215;51.938;8.464;2022-12-10T03:15:00;3.20;74.70
22098;DHT22;11215;51.938;8.464;2022-12-10T03:17:29;3.20;74.70
22098;DHT22;11215;51.938;8.464;2022-12-10T03:19:57;3.20;74.70
22098;DHT22;11215;51.938;8.464;2022-12-10T03:22:24;3.20;74.70
22098;DHT22;11215;51.938;8.464;2022-12-10T03:24:50;3.30;74.80
22098;DHT22;11215;51.938;8.464;2022-12-10T03:27:19;3.30;74.80
22098;DHT22;11215;51.938;8.464;2022-12-10T03:29:48;3.30;74.80
22098;DHT22;11215;51.938;8.464;2022-12-10T03:32:15;3.30;74.80
22098;DHT22;11215;51.938;8.464;2022-12-10T03:34:43;3.30;74.80
22098;DHT22;11215;51.938;8.464;2022-12-10T03:37:10;3.30;74.90
22098;DHT22;11215;51.938;8.464;2022-12-10T03:39:36;3.30;74.90
22098;DHT22;11215;51.938;8.464;2022-12-10T03:42:04;3.30;74.80
22098;DHT22;11215;51.938;8.464;2022-12-10T03:44:33;3.40;74.80
22098;DHT22;11215;51.938;8.464;2022-12-10T03:47:00;3.40;74.90
22098;DHT22;11215;51.938;8.464;2022-12-10T03:49:26;3.40;74.90
22098;DHT22;11215;51.938;8.464;2022-12-10T03:51:52;3.40;74.90
22098;DHT22;11215;51.938;8.464;2022-12-10T03:54:17;3.40;75.00
22098;DHT22;11215;51.938;8.464;2022-12-10T03:56:43;3.40;75.00
22098;DHT22;11215;51.938;8.464;2022-12-10T03:59:09;3.40;75.00
22098;DHT22;11215;51.938;8.464;2022-12-10T04:01:34;3.40;75.00
22098;DHT22;11215;51.938;8.464;2022-12-10T04:04:00;3.40;75.00
22098;DHT22;11215;51.938;8.464;2022-12-10T04:06:26;3.40;75.00
22098;DHT22;11215;51.938;8.464;2022-12-10T04:08:52;3.40;75.00
22098;DHT22;11215;51.938;8.464;2022-12-10T04:11:18;3.40;75.00
22098;DHT22;11215;51.938;8.464;2022-12-10T04:13:44;3.40;75.00
22098;DHT22;11215;51.938;8.464;2022-12-10T04:16:30;3.50;75.10
22098;DHT22;11215;51.938;8.464;2022-12-10T04:19:08;3.50;75.10
22098;DHT22;11215;51.938;8.464;2022-12-10T04:21:35;3.50;75.10
22098;DHT22;11215;51.938;8.464;2022-12-10T04:24:28;3.50;75.00
22098;DHT22;11215;51.938;8.464;2022-12-10T04:27:36;3.50;75.10
22098;DHT22;11215;51.938;8.464;2022-12-10T04:30:04;3.50;75.00
22098;DHT22;11215;51.938;8.464;2022-12-10T04:32:30;3.50;75.00
22098;DHT22;11215;51.938;8.464;2022-12-10T04:34:56;3.50;75.00
22098;DHT22;11215;51.938;8.464;2022-12-10T04:37:23;3.50;75.10
22098;DHT22;11215;51.938;8.464;2022-12-10T04:39:50;3.50;75.10
22098;DHT22;11215;51.938;8.464;2022-12-10T04:42:16;3.50;75.10
22098;DHT22;11215;51.938;8.464;2022-12-10T04:44:42;3.50;75.10
22098;DHT22;11215;51.938;8.464;2022-12-10T04:47:09;3.60;75.10
22098;DHT22;11215;51.938;8.464;2022-12-10T04:49:35;3.50;75.10
22098;DHT22;11215;51.938;8.464;2022-12-10T04:52:01;3.50;75.10
22098;DHT22;11215;51.938;8.464;2022-12-10T04:54:27;3.60;75.20
22098;DHT22;11215;51.938;8.464;2022-12-10T04:56:53;3.60;75.20
22098;DHT22;11215;51.938;8.464;2022-12-10T04:59:19;3.60;75.20
22098;DHT22;11215;51.938;8.464;2022-12-10T05:01:45;3.60;75.20
22098;DHT22;11215;51.938;8.464;2022-12-10T05:04:12;3.60;75.20
22098;DHT22;11215;51.938;8.464;2022-12-10T05:06:39;3.60;75.20
22098;DHT22;11215;51.938;8.464;2022-12-10T05:09:05;3.60;75.20
22098;DHT22;11215;51.938;8.464;2022-12-10T05:11:31;3.60;75.20
22098;DHT22;11215;51.938;8.464;2022-12-10T05:13:58;3.60;75.20
22098;DHT22;11215;51.938;8.464;2022-12-10T05:16:28;3.60;75.20
22098;DHT22;11215;51.938;8.464;2022-12-10T05:18:55;3.60;75.20
22098;DHT22;11215;51.938;8.464;2022-12-10T05:21:22;3.60;75.10
22098;DHT22;11215;51.938;8.464;2022-12-10T05:23:51;3.70;75.20
22098;DHT22;11215;51.938;8.464;2022-12-10T05:26:22;3.70;75.20
22098;DHT22;11215;51.938;8.464;2022-12-10T05:28:52;3.70;75.20
22098;DHT22;11215;51.938;8.464;2022-12-10T05:31:26;3.70;75.20
22098;DHT22;11215;51.938;8.464;2022-12-10T05:33:53;3.70;75.20
22098;DHT22;11215;51.938;8.464;2022-12-10T05:36:22;3.70;75.20
22098;DHT22;11215;51.938;8.464;2022-12-10T05:38:48;3.70;75.20
22098;DHT22;11215;51.938;8.464;2022-12-10T05:41:23;3.70;75.20
22098;DHT22;11215;51.938;8.464;2022-12-10T05:43:50;3.70;76.00
22098;DHT22;11215;51.938;8.464;2022-12-10T05:46:24;3.70;75.20
22098;DHT22;11215;51.938;8.464;2022-12-10T05:48:50;3.70;75.20
22098;DHT22;11215;51.938;8.464;2022-12-10T05:51:22;3.70;75.20
22098;DHT22;11215;51.938;8.464;2022-12-10T05:53:48;3.70;75.20
22098;DHT22;11215;51.938;8.464;2022-12-10T05:56:18;3.70;75.10
22098;DHT22;11215;51.938;8.464;2022-12-10T05:58:46;3.70;75.20
22098;DHT22;11215;51.938;8.464;2022-12-10T06:01:14;3.70;75.10
22098;DHT22;11215;51.938;8.464;2022-12-10T06:03:40;3.70;75.10
22098;DHT22;11215;51.938;8.464;2022-12-10T06:06:06;3.70;75.10
22098;DHT22;11215;51.938;8.464;2022-12-10T06:08:32;3.70;75.10
22098;DHT22;11215;51.938;8.464;2022-12-10T06:11:16;3.70;75.00
22098;DHT22;11215;51.938;8.464;2022-12-10T06:13:42;3.80;75.10
22098;DHT22;11215;51.938;8.464;2022-12-10T06:16:10;3.70;75.00
22098;DHT22;11215;51.938;8.464;2022-12-10T06:18:36;3.70;75.10
22098;DHT22;11215;51.938;8.464;2022-12-10T06:21:07;3.70;75.10
22098;DHT22;11215;51.938;8.464;2022-12-10T06:23:34;3.80;75.20
22098;DHT22;11215;51.938;8.464;2022-12-10T06:26:07;3.70;75.20
22098;DHT22;11215;51.938;8.464;2022-12-10T06:28:33;3.70;75.30
22098;DHT22;11215;51.938;8.464;2022-12-10T06:30:59;3.70;75.20
22098;DHT22;11215;51.938;8.464;2022-12-10T06:33:26;3.70;75.10
22098;DHT22;11215;51.938;8.464;2022-12-10T06:35:52;3.70;75.10
22098;DHT22;11215;51.938;8.464;2022-12-10T06:38:17;3.70;75.10
22098;DHT22;11215;51.938;8.464;2022-12-10T06:40:44;3.80;75.10
22098;DHT22;11215;51.938;8.464;2022-12-10T06:43:10;3.70;75.00
22098;DHT22;11215;51.938;8.464;2022-12-10T06:45:40;3.70;75.10
22098;DHT22;11215;51.938;8.464;2022-12-10T06:48:06;3.70;75.00
22098;DHT22;11215;51.938;8.464;2022-12-10T06:50:32;3.70;75.00
22098;DHT22;11215;51.938;8.464;2022-12-10T06:52:57;3.70;75.00
22098;DHT22;11215;51.938;8.464;2022-12-10T06:55:23;3.70;75.00
22098;DHT22;11215;51.938;8.464;2022-12-10T06:57:52;3.70;75.00
22098;DHT22;11215;51.938;8.464;2022-12-10T07:00:19;3.70;75.00
22098;DHT22;11215;51.938;8.464;2022-12-10T07:02:45;3.70;75.00
22098;DHT22;11215;51.938;8.464;2022-12-10T07:05:11;3.70;75.10
22098;DHT22;11215;51.938;8.464;2022-12-10T07:07:36;3.70;75.10
22098;DHT22;11215;51.938;8.464;2022-12-10T07:10:03;3.70;75.10
22098;DHT22;11215;51.938;8.464;2022-12-10T07:12:29;3.70;75.10
22098;DHT22;11215;51.938;8.464;2022-12-10T07:14:55;3.70;75.00
22098;DHT22;11215;51.938;8.464;2022-12-10T07:17:20;3.70;75.00
22098;DHT22;11215;51.938;8.464;2022-12-10T07:19:46;3.60;75.00
22098;DHT22;11215;51.938;8.464;2022-12-10T07:22:12;3.60;75.00
22098;DHT22;11215;51.938;8.464;2022-12-10T07:24:37;3.60;75.10
22098;DHT22;11215;51.938;8.464;2022-12-10T07:27:07;3.70;75.10
22098;DHT22;11215;51.938;8.464;2022-12-10T07:29:33;3.60;75.10
22098;DHT22;11215;51.938;8.464;2022-12-10T07:31:58;3.60;75.10
22098;DHT22;11215;51.938;8.464;2022-12-10T07:34:24;3.60;75.10
22098;DHT22;11215;51.938;8.464;2022-12-10T07:36:50;3.60;75.00
22098;DHT22;11215;51.938;8.464;2022-12-10T07:39:15;3.60;75.10
22098;DHT22;11215;51.938;8.464;2022-12-10T07:41:53;3.60;75.10
22098;DHT22;11215;51.938;8.464;2022-12-10T07:44:22;3.60;75.10
22098;DHT22;11215;51.938;8.464;2022-12-10T07:46:49;3.60;75.10
22098;DHT22;11215;51.938;8.464;2022-12-10T07:49:15;3.70;75.10
22098;DHT22;11215;51.938;8.464;2022-12-10T07:51:44;3.70;75.10
22098;DHT22;11215;51.938;8.464;2022-12-10T07:54:10;3.60;75.10
22098;DHT22;11215;51.938;8.464;2022-12-10T07:56:36;3.70;75.10
22098;DHT22;11215;51.938;8.464;2022-12-10T07:59:02;3.60;75.10
22098;DHT22;11215;51.938;8.464;2022-12-10T08:01:27;3.70;75.00
22098;DHT22;11215;51.938;8.464;2022-12-10T08:03:55;3.70;75.00
22098;DHT22;11215;51.938;8.464;2022-12-10T08:06:22;3.70;75.00
22098;DHT22;11215;51.938;8.464;2022-12-10T08:08:48;3.70;75.00
22098;DHT22;11215;51.938;8.464;2022-12-10T08:11:16;3.70;75.00
22098;DHT22;11215;51.938;8.464;2022-12-10T08:13:41;3.70;75.00
22098;DHT22;11215;51.938;8.464;2022-12-10T08:16:19;3.60;74.80
22098;DHT22;11215;51.938;8.464;2022-12-10T08:18:45;3.60;74.80
22098;DHT22;11215;51.938;8.464;2022-12-10T08:21:16;3.60;74.80
22098;DHT22;11215;51.938;8.464;2022-12-10T08:23:42;3.70;74.90
22098;DHT22;11215;51.938;8.464;2022-12-10T08:26:10;3.60;74.90
22098;DHT22;11215;51.938;8.464;2022-12-10T08:28:36;3.60;74.90
22098;DHT22;11215;51.938;8.464;2022-12-10T08:31:02;3.60;74.90
22098;DHT22;11215;51.938;8.464;2022-12-10T08:33:28;3.60;74.80
22098;DHT22;11215;51.938;8.464;2022-12-10T08:35:57;3.60;74.80
22098;DHT22;11215;51.938;8.464;2022-12-10T08:38:24;3.60;74.80
22098;DHT22;11215;51.938;8.464;2022-12-10T08:40:49;3.60;74.80
22098;DHT22;11215;51.938;8.464;2022-12-10T08:43:15;3.60;74.80
22098;DHT22;11215;51.938;8.464;2022-12-10T08:45:40;3.60;74.80
22098;DHT22;11215;51.938;8.464;2022-12-10T08:48:06;3.60;74.90
22098;DHT22;11215;51.938;8.464;2022-12-10T08:50:31;3.60;74.80
22098;DHT22;11215;51.938;8.464;2022-12-10T08:52:57;3.60;74.70
22098;DHT22;11215;51.938;8.464;2022-12-10T08:55:23;3.60;74.80
22098;DHT22;11215;51.938;8.464;2022-12-10T08:57:48;3.60;74.80
22098;DHT22;11215;51.938;8.464;2022-12-10T09:00:14;3.60;74.80
22098;DHT22;11215;51.938;8.464;2022-12-10T09:02:40;3.70;74.90
22098;DHT22;11215;51.938;8.464;2022-12-10T09:05:06;3.70;74.90
22098;DHT22;11215;51.938;8.464;2022-12-10T09:07:33;3.70;74.80
22098;DHT22;11215;51.938;8.464;2022-12-10T09:09:58;3.70;74.80
22098;DHT22;11215;51.938;8.464;2022-12-10T09:12:24;3.70;74.90
22098;DHT22;11215;51.938;8.464;2022-12-10T09:14:50;3.70;74.80
22098;DHT22;11215;51.938;8.464;2022-12-10T09:17:15;3.70;74.90
22098;DHT22;11215;51.938;8.464;2022-12-10T09:19:41;3.70;74.90
22098;DHT22;11215;51.938;8.464;2022-12-10T09:22:07;3.70;74.90
22098;DHT22;11215;51.938;8.464;2022-12-10T09:24:32;3.70;74.90
22098;DHT22;11215;51.938;8.464;2022-12-10T09:26:59;3.80;75.00
22098;DHT22;11215;51.938;8.464;2022-12-10T09:29:24;3.80;75.00
22098;DHT22;11215;51.938;8.464;2022-12-10T09:31:51;3.80;75.00
22098;DHT22;11215;51.938;8.464;2022-12-10T09:34:17;3.80;75.70
22098;DHT22;11215;51.938;8.464;2022-12-10T09:36:42;3.90;75.00
22098;DHT22;11215;51.938;8.464;2022-12-10T09:39:08;3.90;75.00
22098;DHT22;11215;51.938;8.464;2022-12-10T09:44:13;3.90;74.80
22098;DHT22;11215;51.938;8.464;2022-12-10T09:46:52;3.90;74.70
22098;DHT22;11215;51.938;8.464;2022-12-10T09:51:57;4.00;74.70
22098;DHT22;11215;51.938;8.464;2022-12-10T09:54:32;4.00;74.70
22098;DHT22;11215;51.938;8.464;2022-12-10T09:57:00;4.00;74.50
22098;DHT22;11215;51.938;8.464;2022-12-10T09:59:38;4.00;74.60
22098;DHT22;11215;51.938;8.464;2022-12-10T10:02:26;4.00;74.60
22098;DHT22;11215;51.938;8.464;2022-12-10T10:05:11;4.00;74.50
22098;DHT22;11215;51.938;8.464;2022-12-10T10:08:04;4.00;75.40
22098;DHT22;11215;51.938;8.464;2022-12-10T10:10:36;4.00;74.60
22098;DHT22;11215;51.938;8.464;2022-12-10T10:13:19;4.10;74.60
22098;DHT22;11215;51.938;8.464;2022-12-10T10:15:46;4.10;74.60
22098;DHT22;11215;51.938;8.464;2022-12-10T10:20:54;4.10;74.60
22098;DHT22;11215;51.938;8.464;2022-12-10T10:23:20;4.10;74.60
22098;DHT22;11215;51.938;8.464;2022-12-10T10:25:46;4.10;74.60
22098;DHT22;11215;51.938;8.464;2022-12-10T10:28:19;4.20;74.70
22098;DHT22;11215;51.938;8.464;2022-12-10T10:30:45;4.10;74.60
22098;DHT22;11215;51.938;8.464;2022-12-10T10:33:13;4.20;74.60
22098;DHT22;11215;51.938;8.464;2022-12-10T10:35:56;4.20;74.60
22098;DHT22;11215;51.938;8.464;2022-12-10T10:38:26;4.20;74.40
22098;DHT22;11215;51.938;8.464;2022-12-10T10:41:03;4.20;74.40
22098;DHT22;11215;51.938;8.464;2022-12-10T10:43:39;4.20;74.30
22098;DHT22;11215;51.938;8.464;2022-12-10T10:46:12;4.20;74.20
22098;DHT22;11215;51.938;8.464;2022-12-10T10:48:39;4.20;74.20
22098;DHT22;11215;51.938;8.464;2022-12-10T10:53:45;4.20;74.10
22098;DHT22;11215;51.938;8.464;2022-12-10T10:56:23;4.30;74.20
22098;DHT22;11215;51.938;8.464;2022-12-10T10:59:02;4.30;74.20
22098;DHT22;11215;51.938;8.464;2022-12-10T11:01:54;4.30;74.30
22098;DHT22;11215;51.938;8.464;2022-12-10T11:04:38;4.30;74.10
22098;DHT22;11215;51.938;8.464;2022-12-10T11:07:21;4.30;74.00
22098;DHT22;11215;51.938;8.464;2022-12-10T11:09:48;4.30;74.00
22098;DHT22;11215;51.938;8.464;2022-12-10T11:12:37;4.30;74.10
22098;DHT22;11215;51.938;8.464;2022-12-10T11:17:50;4.40;74.30
22098;DHT22;11215;51.938;8.464;2022-12-10T11:20:31;4.40;74.30
22098;DHT22;11215;51.938;8.464;2022-12-10T11:23:08;4.40;74.20
22098;DHT22;11215;51.938;8.464;2022-12-10T11:25:38;4.40;74.10
22098;DHT22;11215;51.938;8.464;2022-12-10T11:31:26;4.40;73.90
22098;DHT22;11215;51.938;8.464;2022-12-10T11:51:05;4.50;73.60
22098;DHT22;11215;51.938;8.464;2022-12-10T11:56:17;4.50;73.60
22098;DHT22;11215;51.938;8.464;2022-12-10T12:01:31;4.50;73.70
22098;DHT22;11215;51.938;8.464;2022-12-10T12:07:05;4.60;73.50
22098;DHT22;11215;51.938;8.464;2022-12-10T12:15:43;4.70;73.30
22098;DHT22;11215;51.938;8.464;2022-12-10T12:18:29;4.70;73.20
22098;DHT22;11215;51.938;8.464;2022-12-10T12:21:03;4.70;72.90
22098;DHT22;11215;51.938;8.464;2022-12-10T12:23:51;4.80;73.10
22098;DHT22;11215;51.938;8.464;2022-12-10T12:26:28;4.80;72.90
22098;DHT22;11215;51.938;8.464;2022-12-10T12:29:17;4.80;72.70
22098;DHT22;11215;51.938;8.464;2022-12-10T12:31:49;4.80;72.10
22098;DHT22;11215;51.938;8.464;2022-12-10T12:35:32;4.80;71.80
22098;DHT22;11215;51.938;8.464;2022-12-10T12:37:39;4.80;71.20
22098;DHT22;11215;51.938;8.464;2022-12-10T12:40:29;4.80;71.20
22098;DHT22;11215;51.938;8.464;2022-12-10T12:43:00;4.90;70.80
22098;DHT22;11215;51.938;8.464;2022-12-10T12:45:48;4.80;70.60
22098;DHT22;11215;51.938;8.464;2022-12-10T12:50:49;4.90;70.40
22098;DHT22;11215;51.938;8.464;2022-12-10T12:53:17;4.80;70.30
22098;DHT22;11215;51.938;8.464;2022-12-10T12:56:02;4.90;70.30
22098;DHT22;11215;51.938;8.464;2022-12-10T13:01:42;4.90;69.80
22098;DHT22;11215;51.938;8.464;2022-12-10T13:04:09;4.90;70.40
22098;DHT22;11215;51.938;8.464;2022-12-10T13:06:38;4.90;70.60
22098;DHT22;11215;51.938;8.464;2022-12-10T13:11:44;4.90;70.80
22098;DHT22;11215;51.938;8.464;2022-12-10T13:14:14;4.90;70.90
22098;DHT22;11215;51.938;8.464;2022-12-10T13:27:19;5.00;70.60
22098;DHT22;11215;51.938;8.464;2022-12-10T13:30:00;5.00;70.20
22098;DHT22;11215;51.938;8.464;2022-12-10T13:40:43;5.00;70.20
22098;DHT22;11215;51.938;8.464;2022-12-10T13:46:33;5.00;70.60
22098;DHT22;11215;51.938;8.464;2022-12-10T13:49:04;5.00;70.30
22098;DHT22;11215;51.938;8.464;2022-12-10T14:00:21;5.00;70.40
22098;DHT22;11215;51.938;8.464;2022-12-10T14:02:52;5.00;70.00
22098;DHT22;11215;51.938;8.464;2022-12-10T14:11:27;5.00;69.40
22098;DHT22;11215;51.938;8.464;2022-12-10T14:13:56;5.00;69.70
22098;DHT22;11215;51.938;8.464;2022-12-10T14:16:29;5.00;69.90
22098;DHT22;11215;51.938;8.464;2022-12-10T14:19:04;5.00;69.80
22098;DHT22;11215;51.938;8.464;2022-12-10T14:21:38;5.00;69.70
22098;DHT22;11215;51.938;8.464;2022-12-10T14:24:43;5.00;69.60
22098;DHT22;11215;51.938;8.464;2022-12-10T14:27:19;5.00;69.30
22098;DHT22;11215;51.938;8.464;2022-12-10T14:29:50;5.00;69.60
22098;DHT22;11215;51.938;8.464;2022-12-10T14:32:19;5.00;69.70
22098;DHT22;11215;51.938;8.464;2022-12-10T14:34:58;5.00;69.70
22098;DHT22;11215;51.938;8.464;2022-12-10T14:37:27;5.00;69.30
22098;DHT22;11215;51.938;8.464;2022-12-10T14:39:54;5.00;69.50
22098;DHT22;11215;51.938;8.464;2022-12-10T14:42:21;5.00;69.40
22098;DHT22;11215;51.938;8.464;2022-12-10T14:44:56;5.00;69.50
22098;DHT22;11215;51.938;8.464;2022-12-10T14:47:21;5.00;69.40
22098;DHT22;11215;51.938;8.464;2022-12-10T14:49:50;5.00;69.50
22098;DHT22;11215;51.938;8.464;2022-12-10T14:52:18;5.00;69.30
22098;DHT22;11215;51.938;8.464;2022-12-10T14:54:44;5.00;69.30
22098;DHT22;11215;51.938;8.464;2022-12-10T14:57:18;4.90;69.20
22098;DHT22;11215;51.938;8.464;2022-12-10T15:02:44;4.90;68.80
22098;DHT22;11215;51.938;8.464;2022-12-10T15:07:36;4.90;69.40
22098;DHT22;11215;51.938;8.464;2022-12-10T15:10:07;4.90;69.40
22098;DHT22;11215;51.938;8.464;2022-12-10T15:12:41;4.90;69.30
22098;DHT22;11215;51.938;8.464;2022-12-10T15:20:46;4.80;69.20
22098;DHT22;11215;51.938;8.464;2022-12-10T15:28:26;4.80;69.40
22098;DHT22;11215;51.938;8.464;2022-12-10T15:31:40;4.80;69.40
22098;DHT22;11215;51.938;8.464;2022-12-10T15:33:44;4.60;70.20
22098;DHT22;11215;51.938;8.464;2022-12-10T15:38:44;4.70;70.20
22098;DHT22;11215;51.938;8.464;2022-12-10T15:44:02;4.70;69.80
22098;DHT22;11215;51.938;8.464;2022-12-10T15:46:28;4.80;70.10
22098;DHT22;11215;51.938;8.464;2022-12-10T15:48:54;4.80;70.10
22098;DHT22;11215;51.938;8.464;2022-12-10T15:51:19;4.80;70.00
22098;DHT22;11215;51.938;8.464;2022-12-10T15:53:45;4.80;70.00
22098;DHT22;11215;51.938;8.464;2022-12-10T15:56:11;4.80;69.90
22098;DHT22;11215;51.938;8.464;2022-12-10T15:58:37;4.80;69.70
22098;DHT22;11215;51.938;8.464;2022-12-10T16:01:03;4.80;69.70
22098;DHT22;11215;51.938;8.464;2022-12-10T16:03:29;4.80;69.70
22098;DHT22;11215;51.938;8.464;2022-12-10T16:05:54;4.80;70.60
22098;DHT22;11215;51.938;8.464;2022-12-10T16:08:26;4.80;69.90
22098;DHT22;11215;51.938;8.464;2022-12-10T16:10:59;4.80;69.70
22098;DHT22;11215;51.938;8.464;2022-12-10T16:13:29;4.80;69.80
22098;DHT22;11215;51.938;8.464;2022-12-10T16:16:00;4.80;69.90
22098;DHT22;11215;51.938;8.464;2022-12-10T16:18:26;4.80;70.00
22098;DHT22;11215;51.938;8.464;2022-12-10T16:20:52;4.80;70.10
22098;DHT22;11215;51.938;8.464;2022-12-10T16:23:17;4.80;70.20
22098;DHT22;11215;51.938;8.464;2022-12-10T16:25:44;4.70;70.10
22098;DHT22;11215;51.938;8.464;2022-12-10T16:28:12;4.80;70.20
22098;DHT22;11215;51.938;8.464;2022-12-10T16:30:44;4.80;70.30
22098;DHT22;11215;51.938;8.464;2022-12-10T16:33:11;4.80;70.30
22098;DHT22;11215;51.938;8.464;2022-12-10T16:35:36;4.80;70.30
22098;DHT22;11215;51.938;8.464;2022-12-10T16:38:03;4.70;70.70
22098;DHT22;11215;51.938;8.464;2022-12-10T16:40:29;4.70;70.60
22098;DHT22;11215;51.938;8.464;2022-12-10T16:42:55;4.70;71.30
22098;DHT22;11215;51.938;8.464;2022-12-10T16:45:30;4.70;70.60
22098;DHT22;11215;51.938;8.464;2022-12-10T16:47:57;4.70;70.50
22098;DHT22;11215;51.938;8.464;2022-12-10T16:50:23;4.70;70.50
22098;DHT22;11215;51.938;8.464;2022-12-10T16:52:50;4.80;70.60
22098;DHT22;11215;51.938;8.464;2022-12-10T16:55:20;4.70;70.50
22098;DHT22;11215;51.938;8.464;2022-12-10T16:57:46;4.70;70.50
22098;DHT22;11215;51.938;8.464;2022-12-10T17:00:14;4.70;70.40
22098;DHT22;11215;51.938;8.464;2022-12-10T17:02:42;4.70;70.40
22098;DHT22;11215;51.938;8.464;2022-12-10T17:05:29;4.70;70.40
22098;DHT22;11215;51.938;8.464;2022-12-10T17:07:55;4.70;70.20
22098;DHT22;11215;51.938;8.464;2022-12-10T17:10:21;4.70;71.10
22098;DHT22;11215;51.938;8.464;2022-12-10T17:13:05;4.70;70.10
22098;DHT22;11215;51.938;8.464;2022-12-10T17:15:31;4.70;70.20
22098;DHT22;11215;51.938;8.464;2022-12-10T17:17:56;4.70;70.20
22098;DHT22;11215;51.938;8.464;2022-12-10T17:20:22;4.60;70.30
22098;DHT22;11215;51.938;8.464;2022-12-10T17:22:50;4.60;70.40
22098;DHT22;11215;51.938;8.464;2022-12-10T17:25:16;4.60;70.50
22098;DHT22;11215;51.938;8.464;2022-12-10T17:27:42;4.60;70.50
22098;DHT22;11215;51.938;8.464;2022-12-10T17:30:12;4.60;70.50
22098;DHT22;11215;51.938;8.464;2022-12-10T17:32:39;4.60;70.50
22098;DHT22;11215;51.938;8.464;2022-12-10T17:35:05;4.60;70.60
22098;DHT22;11215;51.938;8.464;2022-12-10T17:37:34;4.60;70.70
22098;DHT22;11215;51.938;8.464;2022-12-10T17:40:03;4.60;70.60
22098;DHT22;11215;51.938;8.464;2022-12-10T17:42:28;4.60;70.60
22098;DHT22;11215;51.938;8.464;2022-12-10T17:44:54;4.60;70.50
22098;DHT22;11215;51.938;8.464;2022-12-10T17:47:23;4.60;70.60
22098;DHT22;11215;51.938;8.464;2022-12-10T17:49:49;4.60;70.70
22098;DHT22;11215;51.938;8.464;2022-12-10T17:52:28;4.60;70.70
22098;DHT22;11215;51.938;8.464;2022-12-10T17:54:53;4.60;70.60
22098;DHT22;11215;51.938;8.464;2022-12-10T17:57:23;4.50;70.70
22098;DHT22;11215;51.938;8.464;2022-12-10T17:59:50;4.50;70.70
22098;DHT22;11215;51.938;8.464;2022-12-10T18:02:15;4.50;70.70
22098;DHT22;11215;51.938;8.464;2022-12-10T18:04:41;4.50;70.70
22098;DHT22;11215;51.938;8.464;2022-12-10T18:07:17;4.50;70.70
22098;DHT22;11215;51.938;8.464;2022-12-10T18:09:43;4.50;70.60
22098;DHT22;11215;51.938;8.464;2022-12-10T18:12:10;4.50;70.60
22098;DHT22;11215;51.938;8.464;2022-12-10T18:14:36;4.50;70.60
22098;DHT22;11215;51.938;8.464;2022-12-10T18:17:04;4.50;70.70
22098;DHT22;11215;51.938;8.464;2022-12-10T18:19:34;4.50;70.70